createdAt,value
2023-03-07T00:03:38.786Z,5.82
2023-03-07T00:08:35.312Z,5.78
2023-03-07T00:13:31.858Z,5.7
2023-03-07T00:18:28.478Z,5.78
2023-03-07T00:23:24.943Z,5.74
2023-03-07T00:29:35.606Z,5.74
2023-03-07T00:34:32.398Z,5.7
2023-03-07T00:39:28.636Z,5.74
2023-03-07T00:45:39.341Z,5.78
2023-03-07T00:50:35.805Z,5.78
2023-03-07T00:55:32.371Z,5.7
2023-03-07T01:00:28.932Z,5.78
2023-03-07T01:05:25.408Z,5.78
2023-03-07T01:11:36.088Z,5.78
2023-03-07T01:16:32.733Z,5.82
2023-03-07T01:21:29.211Z,5.82
2023-03-07T01:26:25.646Z,5.86
2023-03-07T01:32:36.317Z,5.86
2023-03-07T01:37:32.853Z,5.86
2023-03-07T01:42:29.361Z,5.86
2023-03-07T01:53:36.783Z,5.86
2023-03-07T01:58:33.112Z,5.86
2023-03-07T02:03:29.600Z,5.86
2023-03-07T02:08:26.277Z,5.86
2023-03-07T02:14:36.904Z,5.86
2023-03-07T02:19:33.369Z,5.86
2023-03-07T02:24:29.882Z,5.86
2023-03-07T02:29:26.493Z,5.82
2023-03-07T02:35:37.155Z,5.82
2023-03-07T02:40:33.629Z,5.82
2023-03-07T02:45:30.198Z,5.86
2023-03-07T02:50:26.717Z,5.86
2023-03-07T02:56:37.343Z,5.86
2023-03-07T03:01:34.010Z,5.9
2023-03-07T03:06:30.410Z,5.9
2023-03-07T03:17:37.702Z,5.94
2023-03-07T03:21:28.220Z,5.94
2023-03-07T03:26:24.771Z,5.94
2023-03-07T03:32:35.508Z,5.98
2023-03-07T03:37:31.929Z,5.94
2023-03-07T03:42:28.462Z,6.02
2023-03-07T03:48:39.182Z,6.02
2023-03-07T03:53:35.727Z,6.02
2023-03-07T03:58:32.222Z,5.98
2023-03-07T04:03:28.925Z,6.06
2023-03-07T04:08:25.370Z,6.06
2023-03-07T04:14:35.950Z,6.06
2023-03-07T04:19:32.504Z,6.02
2023-03-07T04:24:29.212Z,6.06
2023-03-07T04:29:25.579Z,6.06
2023-03-07T04:35:36.234Z,6.06
2023-03-07T04:45:29.267Z,6.1
2023-03-07T04:50:25.825Z,6.1
2023-03-07T04:56:36.504Z,6.1
2023-03-07T05:01:33.031Z,6.1
2023-03-07T05:06:29.512Z,6.1
2023-03-07T05:11:26.065Z,6.1
2023-03-07T05:17:36.687Z,6.18
2023-03-07T05:22:33.204Z,6.18
2023-03-07T05:27:29.732Z,6.18
2023-03-07T05:32:26.286Z,6.22
2023-03-07T05:38:37.359Z,6.22
2023-03-07T05:43:33.498Z,6.22
2023-03-07T05:48:30.009Z,6.18
2023-03-07T05:53:26.646Z,6.18
2023-03-07T05:59:37.225Z,6.18
2023-03-07T06:04:33.746Z,6.14
2023-03-07T06:09:30.239Z,6.18
2023-03-07T06:14:26.877Z,6.18
2023-03-07T06:20:37.467Z,6.22
2023-03-07T06:25:34.037Z,6.22
2023-03-07T06:30:30.502Z,6.22
2023-03-07T06:35:27.085Z,6.1
2023-03-07T06:41:37.799Z,6.06
2023-03-07T06:46:34.253Z,6.06
2023-03-07T06:51:30.800Z,6.14
2023-03-07T06:56:27.364Z,6.18
2023-03-07T07:02:38.192Z,6.27
2023-03-07T07:07:34.611Z,6.31
2023-03-07T07:12:31.013Z,6.31
2023-03-07T07:17:27.577Z,6.35
2023-03-07T07:23:38.262Z,6.39
2023-03-07T07:28:34.841Z,6.39
2023-03-07T07:33:31.304Z,6.44
2023-03-07T07:38:27.940Z,6.48
2023-03-07T07:43:24.390Z,6.48
2023-03-07T07:49:35.022Z,6.48
2023-03-07T07:54:31.533Z,6.48
2023-03-07T07:59:28.097Z,6.52
2023-03-07T08:04:24.625Z,6.52
2023-03-07T08:10:35.312Z,6.52
2023-03-07T08:15:31.870Z,6.48
2023-03-07T08:20:28.408Z,6.52
2023-03-07T08:26:39.117Z,6.52
2023-03-07T08:31:35.643Z,6.52
2023-03-07T08:36:32.073Z,6.44
2023-03-07T08:41:28.652Z,6.52
2023-03-07T08:47:39.287Z,6.52
2023-03-07T08:52:35.887Z,6.52
2023-03-07T08:57:32.426Z,6.52
2023-03-07T09:02:29.067Z,6.61
2023-03-07T09:07:25.411Z,6.7
2023-03-07T09:13:49.731Z,6.79
2023-03-07T09:23:29.241Z,6.83
2023-03-07T09:28:25.680Z,6.79
2023-03-07T09:34:36.348Z,6.83
2023-03-07T09:39:32.862Z,6.79
2023-03-07T09:44:29.547Z,6.83
2023-03-07T09:55:36.591Z,6.7
2023-03-07T10:00:33.109Z,6.7
2023-03-07T10:05:29.698Z,6.74
2023-03-07T10:10:26.259Z,6.79
2023-03-07T10:16:37.099Z,6.79
2023-03-07T10:21:33.373Z,6.79
2023-03-07T10:26:29.905Z,6.7
2023-03-07T10:31:26.523Z,6.74
2023-03-07T10:37:37.109Z,6.65
2023-03-07T10:42:33.640Z,6.65
2023-03-07T10:47:30.204Z,6.79
2023-03-07T10:52:26.754Z,6.83
2023-03-07T10:58:37.413Z,6.74
2023-03-07T11:03:49.608Z,6.61
2023-03-07T11:08:30.422Z,6.74
2023-03-07T11:13:27.072Z,6.79
2023-03-07T11:19:37.658Z,6.92
2023-03-07T11:24:34.173Z,6.97
2023-03-07T11:29:30.652Z,6.92
2023-03-07T11:34:27.389Z,6.97
2023-03-07T11:39:31.931Z,6.79
2023-03-07T11:44:28.492Z,6.79
2023-03-07T11:50:39.190Z,6.7
2023-03-07T11:55:36.169Z,6.65
2023-03-07T12:00:32.302Z,6.57
2023-03-07T12:05:28.865Z,6.65
2023-03-07T12:10:25.306Z,6.65
2023-03-07T12:16:36.026Z,6.65
2023-03-07T12:21:32.472Z,6.74
2023-03-07T12:26:29.124Z,6.79
2023-03-07T12:31:25.673Z,6.83
2023-03-07T12:37:36.224Z,6.88
2023-03-07T12:42:32.727Z,6.92
2023-03-07T12:47:29.303Z,6.97
2023-03-07T12:52:25.831Z,6.97
2023-03-07T12:58:36.489Z,6.83
2023-03-07T13:03:32.994Z,6.83
2023-03-07T13:08:29.660Z,6.83
2023-03-07T13:13:26.477Z,6.88
2023-03-07T13:19:36.682Z,6.92
2023-03-07T13:24:33.229Z,7.02
2023-03-07T13:29:29.862Z,7.02
2023-03-07T13:34:26.315Z,6.92
2023-03-07T13:40:36.955Z,6.83
2023-03-07T13:45:33.496Z,6.88
2023-03-07T13:50:30.013Z,6.92
2023-03-07T13:55:26.566Z,6.92
2023-03-07T14:01:37.336Z,6.52
2023-03-07T14:06:33.745Z,6.44
2023-03-07T14:11:30.293Z,6.35
2023-03-07T14:22:37.497Z,6.18
2023-03-07T14:27:34.024Z,6.27
2023-03-07T14:32:30.628Z,6.31
2023-03-07T14:37:27.186Z,6.31
2023-03-07T14:43:37.980Z,6.27
2023-03-07T14:48:34.296Z,6.06
2023-03-07T14:53:30.821Z,5.98
2023-03-07T14:58:27.406Z,5.86
2023-03-07T15:04:38.148Z,5.86
2023-03-07T15:09:34.597Z,5.86
2023-03-07T15:14:31.041Z,5.82
2023-03-07T15:19:27.618Z,5.7
2023-03-07T15:25:38.328Z,5.66
2023-03-07T15:30:34.799Z,5.59
2023-03-07T15:35:31.392Z,5.47
2023-03-07T15:40:27.978Z,5.4
2023-03-07T15:46:38.536Z,5.25
2023-03-07T15:51:35.062Z,5.15
2023-03-07T15:56:31.565Z,5.18
2023-03-07T16:01:28.251Z,5.18
2023-03-07T16:07:38.765Z,5.18
2023-03-07T16:12:35.346Z,5.15
2023-03-07T16:17:31.837Z,5.11
2023-03-07T16:22:28.436Z,5.15
2023-03-07T16:28:39.048Z,5.18
2023-03-07T16:33:35.678Z,5.15
2023-03-07T16:38:32.133Z,5.18
2023-03-07T16:43:28.665Z,5.25
2023-03-07T16:48:25.246Z,5.25
2023-03-07T16:54:35.931Z,5.15
2023-03-07T16:59:32.381Z,5.15
2023-03-07T17:04:28.939Z,5.11
2023-03-07T17:09:25.455Z,5.11
2023-03-07T17:15:36.188Z,5.04
2023-03-07T17:20:32.637Z,5.08
2023-03-07T17:25:29.172Z,5.08
2023-03-07T17:30:25.699Z,5.04
2023-03-07T17:36:36.388Z,5.04
2023-03-07T17:41:32.872Z,5.01
2023-03-07T17:46:29.578Z,5.01
2023-03-07T17:51:26.028Z,5.01
2023-03-07T17:57:36.683Z,5.01
2023-03-07T18:02:33.151Z,4.97
2023-03-07T18:07:29.712Z,4.94
2023-03-07T18:12:26.211Z,4.94
2023-03-07T18:18:36.969Z,4.94
2023-03-07T18:23:33.387Z,4.94
2023-03-07T18:28:30.002Z,4.94
2023-03-07T18:33:26.521Z,4.94
2023-03-07T18:39:37.118Z,4.94
2023-03-07T18:44:33.658Z,4.94
2023-03-07T18:49:30.181Z,4.94
2023-03-07T18:54:26.732Z,4.97
2023-03-07T19:00:37.517Z,4.94
2023-03-07T19:05:34.126Z,4.97
2023-03-07T19:10:30.499Z,4.97
2023-03-07T19:15:26.995Z,5.01
2023-03-07T19:21:37.647Z,4.97
2023-03-07T19:26:34.264Z,4.97
2023-03-07T19:31:30.754Z,4.97
2023-03-07T19:36:27.571Z,4.97
2023-03-07T19:42:38.063Z,4.94
2023-03-07T19:47:34.489Z,4.94
2023-03-07T19:52:30.945Z,4.9
2023-03-07T19:57:27.553Z,4.9
2023-03-07T20:03:38.239Z,4.9
2023-03-07T20:08:34.682Z,4.87
2023-03-07T20:13:31.191Z,4.84
2023-03-07T20:18:27.807Z,4.84
2023-03-07T20:24:38.440Z,4.84
2023-03-07T20:29:35.035Z,4.8
2023-03-07T20:34:31.457Z,4.8
2023-03-07T20:39:28.029Z,4.8
2023-03-07T20:45:38.708Z,4.8
2023-03-07T20:50:35.303Z,4.77
2023-03-07T20:55:31.764Z,4.74
2023-03-07T21:00:28.292Z,4.8
2023-03-07T21:06:38.996Z,4.8
2023-03-07T21:11:35.510Z,4.8
2023-03-07T21:16:32.049Z,4.74
2023-03-07T21:21:28.612Z,4.84
2023-03-07T21:26:25.072Z,4.84
2023-03-07T21:32:35.799Z,4.8
2023-03-07T21:37:32.258Z,4.77
2023-03-07T21:42:28.857Z,4.8
2023-03-07T21:48:39.557Z,4.84
2023-03-07T21:53:35.996Z,4.84
2023-03-07T22:03:29.059Z,4.87
2023-03-07T22:08:25.666Z,4.87
2023-03-07T22:14:36.346Z,4.9
2023-03-07T22:19:32.806Z,4.9
2023-03-07T22:24:29.290Z,4.94
2023-03-07T22:29:25.875Z,4.94
2023-03-07T22:35:36.629Z,4.87
2023-03-07T22:40:33.036Z,4.87
2023-03-07T22:45:29.669Z,4.84
2023-03-07T22:50:26.113Z,4.87
2023-03-07T22:56:36.732Z,4.87
2023-03-07T23:01:33.293Z,4.87
2023-03-07T23:06:29.964Z,4.87
2023-03-07T23:11:26.364Z,4.9
2023-03-07T23:17:37.037Z,4.9
2023-03-07T23:22:33.542Z,4.9
2023-03-07T23:27:30.166Z,4.9
2023-03-07T23:32:26.661Z,4.9
2023-03-07T23:38:37.273Z,4.9
2023-03-07T23:43:33.822Z,4.9
2023-03-07T23:48:30.409Z,4.9
2023-03-07T23:53:27.027Z,4.94
2023-03-07T23:59:37.663Z,4.9
